createdAt,value
2019-05-16T00:01:40.604Z,9.65
2019-05-16T00:20:59.113Z,9.40
2019-05-16T00:24:48.725Z,9.48
2019-05-16T00:31:21.340Z,9.55
2019-05-16T00:34:49.116Z,10.43
2019-05-16T00:38:15.344Z,10.32
2019-05-16T00:41:55.071Z,10.03
2019-05-16T00:44:50.727Z,10.35
2019-05-16T00:47:58.707Z,10.68
2019-05-16T00:50:52.545Z,9.93
2019-05-16T00:53:48.429Z,10.58
2019-05-16T00:56:44.133Z,10.63
2019-05-16T00:59:41.132Z,11.28
2019-05-16T01:03:10.277Z,10.50
2019-05-16T01:06:22.630Z,11.57
2019-05-16T01:09:18.691Z,10.58
2019-05-16T01:12:12.973Z,11.12
2019-05-16T01:15:10.898Z,11.28
2019-05-16T01:18:08.455Z,11.53
2019-05-16T01:21:08.156Z,11.12
2019-05-16T01:24:05.190Z,11.12
2019-05-16T01:27:00.965Z,11.97
2019-05-16T01:30:04.369Z,11.48
2019-05-16T01:33:12.901Z,11.70
2019-05-16T01:36:15.127Z,11.78
2019-05-16T01:39:15.512Z,11.85
2019-05-16T01:42:18.430Z,11.57
2019-05-16T01:45:21.903Z,12.25
2019-05-16T01:48:22.726Z,11.18
2019-05-16T01:51:22.421Z,11.33
2019-05-16T01:54:19.911Z,11.20
2019-05-16T01:57:41.273Z,12.07
2019-05-16T02:00:49.888Z,12.00
2019-05-16T02:03:40.921Z,12.18
2019-05-16T02:07:03.929Z,11.35
2019-05-16T02:11:48.075Z,12.10
2019-05-16T02:14:11.814Z,11.43
2019-05-16T02:17:28.907Z,12.47
2019-05-16T02:20:30.927Z,11.38
2019-05-16T02:23:58.373Z,12.10
2019-05-16T02:26:54.419Z,11.95
2019-05-16T02:30:00.002Z,12.70
2019-05-16T02:33:02.979Z,13.35
2019-05-16T02:36:01.501Z,12.82
2019-05-16T02:39:21.169Z,13.50
2019-05-16T02:42:45.809Z,14.15
2019-05-16T02:45:55.179Z,12.68
2019-05-16T02:48:53.351Z,13.25
2019-05-16T02:51:51.097Z,13.72
2019-05-16T02:55:13.481Z,14.03
2019-05-16T02:58:26.035Z,14.47
2019-05-16T03:01:33.485Z,14.63
2019-05-16T03:04:30.070Z,14.40
2019-05-16T03:07:37.717Z,15.80
2019-05-16T03:10:55.904Z,15.68
2019-05-16T03:13:52.256Z,14.80
2019-05-16T03:16:55.606Z,16.17
2019-05-16T03:19:53.723Z,15.38
2019-05-16T03:23:06.436Z,15.55
2019-05-16T03:26:07.372Z,14.95
2019-05-16T03:29:04.322Z,16.48
2019-05-16T03:32:16.706Z,15.53
2019-05-16T03:39:02.658Z,16.67
2019-05-16T03:42:13.921Z,15.80
2019-05-16T03:45:10.877Z,17.73
2019-05-16T03:48:07.149Z,17.67
2019-05-16T03:51:07.312Z,17.30
2019-05-16T03:54:03.404Z,16.97
2019-05-16T03:57:00.494Z,16.65
2019-05-16T04:00:12.347Z,16.07
2019-05-16T04:03:11.397Z,17.05
2019-05-16T04:06:06.716Z,16.55
2019-05-16T04:09:02.637Z,15.18
2019-05-16T04:12:01.543Z,14.13
2019-05-16T04:14:55.986Z,14.90
2019-05-16T04:17:51.425Z,15.60
2019-05-16T04:20:47.344Z,14.55
2019-05-16T04:23:50.584Z,13.83
2019-05-16T04:27:04.307Z,14.03
2019-05-16T04:30:02.888Z,13.80
2019-05-16T04:33:06.418Z,14.98
2019-05-16T04:36:04.996Z,14.47
2019-05-16T04:39:02.477Z,13.58
2019-05-16T04:42:01.517Z,15.25
2019-05-16T04:44:56.298Z,14.85
2019-05-16T04:47:54.969Z,14.90
2019-05-16T04:50:51.863Z,14.45
2019-05-16T04:53:50.949Z,14.47
2019-05-16T04:56:46.072Z,15.00
2019-05-16T04:59:42.348Z,14.23
2019-05-16T05:02:41.820Z,14.43
2019-05-16T05:05:41.247Z,14.40
2019-05-16T05:08:50.428Z,13.32
2019-05-16T05:11:34.844Z,13.08
2019-05-16T05:14:31.213Z,13.62
2019-05-16T05:17:31.540Z,12.55
2019-05-16T05:20:35.347Z,14.38
2019-05-16T05:23:31.522Z,14.23
2019-05-16T05:26:30.806Z,15.83
2019-05-16T05:29:30.708Z,13.32
2019-05-16T05:33:03.292Z,13.70
2019-05-16T05:35:56.888Z,14.18
2019-05-16T05:39:10.916Z,15.32
2019-05-16T05:45:53.611Z,15.03
2019-05-16T05:48:52.145Z,14.58
2019-05-16T05:52:02.662Z,15.13
2019-05-16T05:55:01.946Z,15.63
2019-05-16T05:59:01.386Z,15.30
2019-05-16T06:12:34.926Z,14.65
2019-05-16T06:16:16.433Z,14.75
2019-05-16T06:19:49.932Z,14.30
2019-05-16T06:25:22.528Z,14.28
2019-05-16T06:27:41.199Z,15.65
2019-05-16T06:32:33.836Z,13.45
2019-05-16T06:34:31.834Z,13.93
2019-05-16T06:37:54.490Z,13.15
2019-05-16T06:40:52.996Z,13.48
2019-05-16T06:44:50.315Z,13.90
2019-05-16T06:48:14.312Z,12.78
2019-05-16T06:55:00.686Z,12.73
2019-05-16T06:58:45.617Z,13.55
2019-05-16T07:01:49.850Z,14.25
2019-05-16T07:04:57.706Z,13.45
2019-05-16T07:08:15.808Z,14.07
2019-05-16T07:11:52.678Z,14.18
2019-05-16T07:23:16.027Z,13.85
2019-05-16T07:26:20.554Z,13.93
2019-05-16T07:30:19.977Z,14.35
2019-05-16T07:33:23.831Z,14.73
2019-05-16T07:36:20.898Z,14.43
2019-05-16T07:39:14.135Z,13.53
2019-05-16T07:42:41.202Z,13.28
2019-05-16T07:45:31.784Z,14.53
2019-05-16T07:48:26.686Z,15.18
2019-05-16T07:51:30.845Z,14.43
2019-05-16T07:54:34.081Z,14.30
2019-05-16T07:57:33.935Z,14.83
2019-05-16T08:01:02.763Z,14.10
2019-05-16T08:03:52.681Z,13.85
2019-05-16T08:06:50.919Z,14.03
2019-05-16T08:09:50.479Z,14.47
2019-05-16T08:12:51.483Z,13.45
2019-05-16T08:15:51.557Z,13.62
2019-05-16T08:19:00.852Z,11.25
2019-05-16T08:22:01.233Z,12.28
2019-05-16T08:25:36.577Z,12.88
2019-05-16T08:28:41.207Z,13.50
2019-05-16T08:31:52.808Z,13.28
2019-05-16T08:35:00.831Z,12.82
2019-05-16T08:38:30.872Z,12.95
2019-05-16T08:41:31.515Z,12.95
2019-05-16T08:44:31.702Z,10.75
2019-05-16T08:47:31.820Z,11.40
2019-05-16T08:50:26.057Z,11.55
2019-05-16T08:53:26.964Z,11.10
2019-05-16T08:56:34.984Z,11.40
2019-05-16T08:59:41.049Z,11.22
2019-05-16T09:02:46.034Z,11.33
2019-05-16T09:06:22.512Z,10.85
2019-05-16T09:12:17.314Z,9.68
2019-05-16T09:15:13.714Z,9.93
2019-05-16T09:18:09.310Z,9.13
2019-05-16T09:21:07.460Z,9.98
2019-05-16T09:24:06.716Z,8.98
2019-05-16T09:27:21.467Z,10.23
2019-05-16T09:30:19.695Z,9.43
2019-05-16T09:33:18.339Z,9.55
2019-05-16T09:36:13.802Z,9.73
2019-05-16T09:39:12.220Z,8.65
2019-05-16T09:42:12.557Z,8.93
2019-05-16T09:45:12.076Z,8.45
2019-05-16T09:48:11.915Z,9.08
2019-05-16T09:52:01.608Z,9.60
2019-05-16T09:54:16.791Z,9.08
2019-05-16T09:57:27.986Z,9.43
2019-05-16T10:00:38.094Z,9.65
2019-05-16T10:05:03.060Z,10.03
2019-05-16T10:07:38.911Z,9.38
2019-05-16T10:10:36.959Z,9.83
2019-05-16T10:13:37.725Z,9.35
2019-05-16T10:16:37.400Z,9.20
2019-05-16T10:19:36.792Z,9.50
2019-05-16T10:22:38.179Z,10.05
2019-05-16T10:25:58.261Z,10.65
2019-05-16T10:28:42.018Z,10.38
2019-05-16T10:31:48.576Z,9.38
2019-05-16T10:34:38.161Z,10.45
2019-05-16T10:38:14.940Z,10.13
2019-05-16T10:40:40.270Z,10.70
2019-05-16T10:43:37.051Z,10.58
2019-05-16T10:46:47.776Z,10.65
2019-05-16T10:49:41.923Z,10.32
2019-05-16T10:52:40.340Z,10.05
2019-05-16T10:55:40.721Z,9.78
2019-05-16T10:59:10.649Z,9.63
2019-05-16T11:01:43.981Z,10.13
2019-05-16T11:04:57.430Z,10.53
2019-05-16T11:07:48.532Z,10.13
2019-05-16T11:10:57.108Z,10.60
2019-05-16T11:13:53.243Z,9.70
2019-05-16T11:16:54.507Z,9.93
2019-05-16T11:19:58.109Z,10.23
2019-05-16T11:22:58.675Z,10.75
2019-05-16T11:26:03.632Z,9.98
2019-05-16T11:29:07.683Z,10.10
2019-05-16T11:32:07.907Z,10.48
2019-05-16T11:35:12.101Z,10.85
2019-05-16T11:38:18.210Z,11.00
2019-05-16T11:41:13.111Z,10.32
2019-05-16T11:44:10.252Z,10.32
2019-05-16T11:47:24.462Z,10.50
2019-05-16T11:50:17.589Z,10.30
2019-05-16T11:53:12.264Z,10.28
2019-05-16T11:56:09.919Z,10.18
2019-05-16T11:59:07.946Z,10.32
2019-05-16T12:02:09.127Z,10.20
2019-05-16T12:05:06.255Z,10.90
2019-05-16T12:08:01.673Z,10.43
2019-05-16T12:10:57.923Z,11.22
2019-05-16T12:13:57.601Z,10.23
2019-05-16T12:17:00.757Z,11.40
2019-05-16T12:20:02.402Z,11.30
2019-05-16T12:23:11.360Z,10.90
2019-05-16T12:26:18.052Z,10.15
2019-05-16T12:29:18.544Z,9.98
2019-05-16T12:32:14.400Z,10.48
2019-05-16T12:35:13.083Z,10.20
2019-05-16T12:38:09.684Z,11.53
2019-05-16T12:41:07.136Z,10.82
2019-05-16T12:44:04.473Z,10.70
2019-05-16T12:47:02.865Z,11.03
2019-05-16T12:50:00.093Z,10.95
2019-05-16T12:52:56.911Z,10.95
2019-05-16T12:55:52.272Z,11.22
2019-05-16T12:58:56.728Z,10.95
2019-05-16T13:01:48.132Z,10.85
2019-05-16T13:04:42.268Z,11.08
2019-05-16T13:07:37.757Z,11.18
2019-05-16T13:10:32.037Z,11.40
2019-05-16T13:13:30.249Z,10.82
2019-05-16T13:16:28.244Z,11.35
2019-05-16T13:19:32.810Z,10.95
2019-05-16T13:22:24.121Z,11.22
2019-05-16T13:25:21.825Z,11.28
2019-05-16T13:28:19.178Z,11.48
2019-05-16T13:31:17.102Z,11.25
2019-05-16T13:34:17.739Z,12.82
2019-05-16T13:37:17.575Z,12.00
2019-05-16T13:40:13.727Z,11.80
2019-05-16T13:43:12.617Z,12.80
2019-05-16T13:46:09.801Z,12.50
2019-05-16T13:49:07.655Z,12.10
2019-05-16T13:52:07.245Z,12.07
2019-05-16T13:55:03.040Z,12.40
2019-05-16T13:57:58.860Z,12.10
2019-05-16T14:00:57.001Z,13.10
2019-05-16T14:03:50.183Z,11.95
2019-05-16T14:06:47.520Z,12.05
2019-05-16T14:09:53.358Z,13.90
2019-05-16T14:12:50.323Z,13.40
2019-05-16T14:15:47.351Z,13.38
2019-05-16T14:18:41.691Z,14.75
2019-05-16T14:21:40.365Z,12.40
2019-05-16T14:24:37.456Z,13.10
2019-05-16T14:27:33.468Z,13.95
2019-05-16T14:30:31.769Z,14.18
2019-05-16T14:33:27.753Z,13.35
2019-05-16T14:36:27.323Z,13.75
2019-05-16T14:39:28.091Z,13.32
2019-05-16T14:42:23.498Z,13.50
2019-05-16T14:45:22.978Z,14.50
2019-05-16T14:48:18.754Z,13.70
2019-05-16T14:51:13.631Z,13.38
2019-05-16T14:54:09.412Z,14.53
2019-05-16T14:57:05.317Z,14.85
2019-05-16T15:00:01.341Z,14.23
2019-05-16T15:02:57.559Z,13.48
2019-05-16T15:05:55.361Z,14.07
2019-05-16T15:08:49.934Z,14.55
2019-05-16T15:11:45.537Z,14.50
2019-05-16T15:14:41.022Z,14.45
2019-05-16T15:17:36.651Z,14.50
2019-05-16T15:20:32.179Z,13.85
2019-05-16T15:23:28.460Z,13.25
2019-05-16T15:26:23.517Z,13.90
2019-05-16T15:29:19.381Z,15.13
2019-05-16T15:32:14.579Z,15.05
2019-05-16T15:35:12.449Z,14.80
2019-05-16T15:38:08.753Z,14.65
2019-05-16T15:41:04.618Z,14.25
2019-05-16T15:43:59.985Z,14.93
2019-05-16T15:46:59.926Z,13.98
2019-05-16T15:49:56.569Z,15.13
2019-05-16T15:52:51.602Z,14.07
2019-05-16T15:55:48.265Z,14.10
2019-05-16T15:58:46.692Z,14.65
2019-05-16T16:01:43.165Z,14.87
2019-05-16T16:04:39.672Z,13.72
2019-05-16T16:07:38.026Z,13.65
2019-05-16T16:10:41.904Z,13.80
2019-05-16T16:13:38.715Z,13.98
2019-05-16T16:16:35.357Z,13.90
2019-05-16T16:19:32.601Z,13.32
2019-05-16T16:22:29.644Z,13.83
2019-05-16T16:25:26.833Z,13.43
2019-05-16T16:28:27.130Z,13.83
2019-05-16T16:31:21.968Z,13.75
2019-05-16T16:34:17.785Z,13.43
2019-05-16T16:37:14.019Z,13.72
2019-05-16T16:40:12.110Z,13.35
2019-05-16T16:43:09.389Z,13.13
2019-05-16T16:46:12.550Z,13.78
2019-05-16T16:49:07.344Z,13.95
2019-05-16T16:52:03.510Z,13.50
2019-05-16T16:55:00.245Z,13.10
2019-05-16T16:57:59.643Z,13.18
2019-05-16T17:00:56.469Z,13.40
2019-05-16T17:03:57.589Z,14.03
2019-05-16T17:06:53.262Z,12.68
2019-05-16T17:09:49.270Z,12.35
2019-05-16T17:12:46.694Z,13.20
2019-05-16T17:15:42.553Z,13.40
2019-05-16T17:18:37.481Z,13.05
2019-05-16T17:21:36.664Z,12.90
2019-05-16T17:24:32.423Z,12.60
2019-05-16T17:27:29.345Z,13.38
2019-05-16T17:30:30.538Z,13.18
2019-05-16T17:33:28.566Z,13.48
2019-05-16T17:36:26.593Z,13.20
2019-05-16T17:39:23.561Z,12.93
2019-05-16T17:42:19.753Z,12.55
2019-05-16T17:45:18.138Z,13.18
2019-05-16T17:48:17.576Z,14.00
2019-05-16T17:51:14.051Z,12.78
2019-05-16T17:54:09.839Z,13.28
2019-05-16T17:57:07.433Z,13.43
2019-05-16T18:00:02.741Z,13.30
2019-05-16T18:02:59.251Z,13.88
2019-05-16T18:05:56.716Z,14.00
2019-05-16T18:08:51.697Z,13.22
2019-05-16T18:11:48.931Z,13.40
2019-05-16T18:14:46.739Z,12.53
2019-05-16T18:17:41.487Z,12.40
2019-05-16T18:20:37.348Z,12.45
2019-05-16T18:23:32.166Z,11.93
2019-05-16T18:26:27.311Z,12.73
2019-05-16T18:29:22.599Z,12.00
2019-05-16T18:32:18.511Z,10.63
2019-05-16T18:35:16.526Z,10.95
2019-05-16T18:38:10.472Z,11.08
2019-05-16T18:41:07.819Z,10.98
2019-05-16T18:44:03.209Z,10.63
2019-05-16T18:47:06.930Z,10.58
2019-05-16T18:49:57.379Z,10.85
2019-05-16T18:52:52.092Z,9.45
2019-05-16T18:55:51.731Z,8.98
2019-05-16T18:58:48.902Z,9.78
2019-05-16T19:01:46.898Z,9.23
2019-05-16T19:04:42.531Z,9.45
2019-05-16T19:07:40.470Z,9.20
2019-05-16T19:10:36.655Z,9.10
2019-05-16T19:13:33.396Z,9.08
2019-05-16T19:16:29.405Z,8.38
2019-05-16T19:19:28.093Z,8.73
2019-05-16T19:22:22.676Z,8.38
2019-05-16T19:25:18.981Z,8.68
2019-05-16T19:28:14.940Z,8.38
2019-05-16T19:31:11.039Z,8.58
2019-05-16T19:34:08.353Z,8.10
2019-05-16T19:37:06.782Z,8.60
2019-05-16T19:40:00.437Z,7.87
2019-05-16T19:42:56.566Z,7.80
2019-05-16T19:45:51.445Z,8.58
2019-05-16T19:48:47.828Z,8.58
2019-05-16T19:51:46.052Z,8.70
2019-05-16T19:54:40.306Z,8.08
2019-05-16T19:57:34.491Z,7.55
2019-05-16T20:00:30.210Z,8.28
2019-05-16T20:03:24.419Z,8.35
2019-05-16T20:06:19.703Z,8.63
2019-05-16T20:09:16.640Z,8.30
2019-05-16T20:12:12.807Z,8.18
2019-05-16T20:15:10.995Z,8.25
2019-05-16T20:18:02.772Z,8.00
2019-05-16T20:20:57.130Z,7.72
2019-05-16T20:23:51.323Z,8.33
2019-05-16T20:26:46.590Z,7.97
2019-05-16T20:29:42.075Z,8.40
2019-05-16T20:32:37.201Z,7.87
2019-05-16T20:35:32.558Z,8.95
2019-05-16T20:38:29.199Z,8.40
2019-05-16T20:41:24.667Z,7.87
2019-05-16T20:44:19.021Z,8.10
2019-05-16T20:47:13.766Z,8.13
2019-05-16T20:50:09.110Z,8.00
2019-05-16T20:53:03.791Z,7.90
2019-05-16T20:55:58.744Z,8.55
2019-05-16T20:58:53.564Z,8.40
2019-05-16T21:01:49.321Z,8.55
2019-05-16T21:04:46.436Z,8.33
2019-05-16T21:07:41.769Z,8.05
2019-05-16T21:10:37.134Z,7.75
2019-05-16T21:13:32.235Z,7.75
2019-05-16T21:16:28.946Z,8.38
2019-05-16T21:19:24.541Z,8.50
2019-05-16T21:22:19.554Z,8.65
2019-05-16T21:25:16.880Z,7.20
2019-05-16T21:28:14.109Z,8.00
2019-05-16T21:31:09.011Z,8.03
2019-05-16T21:34:06.990Z,7.95
2019-05-16T21:37:11.228Z,7.95
2019-05-16T21:39:59.811Z,7.25
2019-05-16T21:42:53.250Z,8.13
2019-05-16T21:45:49.073Z,7.65
2019-05-16T21:48:43.490Z,7.80
2019-05-16T21:51:37.948Z,8.20
2019-05-16T21:54:32.676Z,8.33
2019-05-16T21:57:27.035Z,8.05
2019-05-16T22:00:28.949Z,7.85
2019-05-16T22:03:26.893Z,7.87
2019-05-16T22:06:21.130Z,7.83
2019-05-16T22:09:16.815Z,7.95
2019-05-16T22:12:12.146Z,7.22
2019-05-16T22:15:08.628Z,7.40
2019-05-16T22:18:04.437Z,7.50
2019-05-16T22:20:59.057Z,8.13
2019-05-16T22:23:53.368Z,8.35
2019-05-16T22:26:47.906Z,8.08
2019-05-16T22:29:42.716Z,7.83
2019-05-16T22:32:36.912Z,7.80
2019-05-16T22:35:30.909Z,7.08
2019-05-16T22:38:28.337Z,8.00
2019-05-16T22:41:26.588Z,7.78
2019-05-16T22:44:26.959Z,7.12
2019-05-16T22:47:26.477Z,7.33
2019-05-16T22:50:23.337Z,7.28
2019-05-16T22:53:21.313Z,8.00
2019-05-16T22:56:19.606Z,7.58
2019-05-16T22:59:17.643Z,7.50
2019-05-16T23:02:16.849Z,7.53
2019-05-16T23:05:11.637Z,7.75
2019-05-16T23:08:09.126Z,7.50
2019-05-16T23:11:02.713Z,6.78
2019-05-16T23:13:57.652Z,7.22
2019-05-16T23:16:53.045Z,7.33
2019-05-16T23:19:48.918Z,7.65
2019-05-16T23:22:46.815Z,7.30
2019-05-16T23:25:40.575Z,7.12
2019-05-16T23:28:36.731Z,8.05
2019-05-16T23:31:36.385Z,7.78
2019-05-16T23:34:33.063Z,7.67
2019-05-16T23:37:28.546Z,7.37
2019-05-16T23:40:26.106Z,7.40
2019-05-16T23:43:22.715Z,7.40
2019-05-16T23:46:20.354Z,7.53
2019-05-16T23:49:16.819Z,7.87
2019-05-16T23:52:12.221Z,7.12
2019-05-16T23:55:08.337Z,7.35
2019-05-16T23:58:02.826Z,7.25
